Terminal Aerodrome Forecast
Issued by NWS Duluth, MN

Home | Current Version | Previous Version | Text Only | Print | Product List | Glossary On
Versions: 1 2 3 4 5 6 7 8 9 10 11 12 13 14 15 16 17 18 19 20 21 22 23 24
000
FTUS43 KDLH 280535
TAFINL
TAF
KINL 280535Z 2806/2906 30007KT P6SM -SHSN SCT015 BKN025 OVC050
      TEMPO 2806/2809 3SM -SHSN SCT015 OVC022
     FM281400 32012KT P6SM BKN025 OVC035
     FM281600 33013G19KT P6SM BKN030 OVC040
     FM282200 33009KT P6SM BKN035
     FM290100 VRB03KT P6SM SCT035=

USA.gov is the U.S. government's official web portal to all federal, state and local government web resources and services.